Pagrindinis puslapis
METAR-TAF:

METAR-TAF

Oro uostai :

Oruras, Bolivija

platuma: 17-58S, ilguma: 067-04W, Aukštis: 3072 m

Dabartinis oras

Ataskaita buvo paskelbta 48 minutes, ne 13:00 UTC
Vėjas 3 kt iš Šiaurės
Temperatūra 7°C
Drėgmė 45%
Slėgis 1037 hPa
Matomumas 10 km arba daugiau

METAR: SLOR 201300Z 35003KT 9999 NSC 07/M04 Q1037

Laikas: 09:48 (13:48 UTC)


TAF: trūkstamas

Orai ataskaitas ir orų prognozės (METAR, TAF).

turimą stotys yra geltonos ir raudonos taškus žemėlapyje.

Perkelti pele per norėdami pamatyti stoties vardą.

Tada spustelėkite, norėdami matyti oro stebėjimo ir prognozės.

Norėdami pakeisti žemėlapį: spustelėkite ant žalios mygtukų su juodo kryžiaus žemyn,; žalią mygtuką su brūkšneliu, jei norite nutolinti; arba žalių rodyklių gretimoms žemėlapius.


METAR-TAF: